Time;durP1;ratioP1;P1;durP2;ratioP2;P2;SDS_P1;SDS_P2;PMS_P1;PMS_P2;Temp;Humidity;BMP_temperature;BMP_pressure;BME280_temperature;BME280_humidity;BME280_pressure;Samples;Min_cycle;Max_cycle;Signal;HPM_P1;HPM_P2
2021/03/31 00:01:15;;;;;;;18.43;15.30;;;9.10;85.50;;;;;;6102218;23;20468;-79
2021/03/31 00:03:43;;;;;;;16.07;14.37;;;9.00;85.60;;;;;;6102407;23;20415;-79
2021/03/31 00:06:10;;;;;;;17.83;15.80;;;9.00;85.70;;;;;;6102239;23;20417;-79
2021/03/31 00:08:38;;;;;;;17.50;15.63;;;9.00;85.80;;;;;;6138266;23;20417;-79
2021/03/31 00:11:08;;;;;;;17.83;16.00;;;8.90;85.80;;;;;;6138059;23;20428;-79
2021/03/31 00:13:36;;;;;;;18.93;16.90;;;8.90;85.90;;;;;;6102451;23;20433;-79
2021/03/31 00:16:07;;;;;;;18.63;16.73;;;8.90;86.00;;;;;;6126892;23;20413;-79
2021/03/31 00:18:35;;;;;;;18.93;17.03;;;8.80;86.10;;;;;;6137774;23;20764;-76
2021/03/31 00:21:03;;;;;;;17.33;14.97;;;8.80;86.30;;;;;;6137778;23;20404;-78
2021/03/31 00:23:32;;;;;;;18.43;16.07;;;8.70;86.40;;;;;;6137770;23;20402;-76
2021/03/31 00:25:59;;;;;;;17.00;15.30;;;8.70;86.70;;;;;;6137694;23;20464;-76
2021/03/31 00:28:27;;;;;;;17.90;16.13;;;8.60;86.80;;;;;;6137586;23;20749;-78
2021/03/31 00:30:58;;;;;;;19.33;16.17;;;8.60;87.10;;;;;;6138298;23;20382;-77
2021/03/31 00:33:26;;;;;;;17.47;15.77;;;8.60;87.20;;;;;;6101719;23;20743;-77
2021/03/31 00:35:53;;;;;;;16.03;14.43;;;8.50;87.30;;;;;;6137974;23;20401;-78
2021/03/31 00:38:21;;;;;;;18.77;16.03;;;8.50;87.40;;;;;;6137460;23;20488;-77
2021/03/31 00:40:50;;;;;;;17.47;15.67;;;8.50;87.60;;;;;;6101914;23;20952;-77
2021/03/31 00:43:22;;;;;;;18.57;16.67;;;8.40;87.60;;;;;;6101700;23;20965;-77
2021/03/31 00:45:50;;;;;;;18.27;16.40;;;8.40;87.80;;;;;;6137664;23;20881;-77
2021/03/31 00:48:18;;;;;;;17.33;15.30;;;8.40;88.00;;;;;;6136891;23;20480;-78
2021/03/31 00:50:49;;;;;;;17.93;16.13;;;8.30;88.10;;;;;;6137955;23;20398;-78
2021/03/31 00:53:23;;;;;;;17.27;15.40;;;8.30;88.30;;;;;;6102069;23;20457;-78
2021/03/31 00:55:52;;;;;;;16.70;15.00;;;8.30;88.40;;;;;;6126706;23;20428;-77
2021/03/31 00:58:21;;;;;;;17.33;15.67;;;8.30;88.60;;;;;;6138178;23;20422;-77
2021/03/31 01:00:51;;;;;;;17.03;15.27;;;8.20;88.50;;;;;;6103569;23;20421;-77
2021/03/31 01:03:19;;;;;;;17.52;15.60;;;8.20;88.60;;;;;;6139328;23;20456;-77
2021/03/31 01:05:49;;;;;;;16.70;14.80;;;8.20;89.20;;;;;;6103456;23;20201;-77
2021/03/31 01:08:17;;;;;;;18.30;16.43;;;8.20;89.00;;;;;;6139847;23;20426;-77
2021/03/31 01:10:49;;;;;;;16.77;14.70;;;8.10;89.70;;;;;;6103159;23;20474;-78
2021/03/31 01:13:48;;;;;;;17.80;16.10;;;8.10;89.30;;;;;;6126666;23;20441;-78
2021/03/31 01:16:34;;;;;;;16.50;14.13;;;8.10;89.50;;;;;;6101966;23;20417;-78
2021/03/31 01:19:09;;;;;;;19.07;17.20;;;8.00;89.60;;;;;;6101912;23;20441;-78
2021/03/31 01:22:17;;;;;;;17.70;15.90;;;8.00;89.70;;;;;;6126292;23;20409;-78
2021/03/31 01:25:07;;;;;;;17.83;15.30;;;8.00;90.00;;;;;;6129929;23;20425;-77
2021/03/31 01:28:05;;;;;;;17.70;16.00;;;7.90;90.00;;;;;;6125995;23;20414;-77
2021/03/31 01:30:39;;;;;;;16.10;13.80;;;7.80;90.00;;;;;;6125900;23;20468;-77
2021/03/31 01:33:32;;;;;;;16.70;15.10;;;7.80;90.00;;;;;;6125714;23;20437;-77
2021/03/31 01:36:01;;;;;;;17.47;15.57;;;7.80;90.10;;;;;;6150635;23;20868;-77
2021/03/31 01:38:29;;;;;;;18.10;16.07;;;7.80;90.10;;;;;;6126275;23;20433;-77
2021/03/31 01:40:58;;;;;;;18.27;15.87;;;7.70;90.20;;;;;;6125816;23;20489;-77
2021/03/31 01:43:30;;;;;;;16.17;14.20;;;7.70;90.20;;;;;;6125688;23;20457;-78
2021/03/31 01:46:02;;;;;;;17.20;15.10;;;7.60;90.20;;;;;;6125812;23;20814;-78
2021/03/31 01:48:32;;;;;;;16.10;14.50;;;7.60;90.30;;;;;;6125592;23;20818;-78
2021/03/31 01:51:04;;;;;;;21.23;15.80;;;7.60;90.40;;;;;;6150112;23;20421;-78
2021/03/31 01:53:33;;;;;;;16.90;15.20;;;7.50;90.40;;;;;;6125457;23;20430;-78
2021/03/31 01:56:02;;;;;;;18.30;16.37;;;7.50;90.40;;;;;;6125508;23;20476;-77
2021/03/31 01:58:32;;;;;;;18.93;15.13;;;7.50;90.50;;;;;;6125399;23;20496;-77
2021/03/31 02:01:01;;;;;;;17.27;14.87;;;7.50;90.50;;;;;;6149865;23;20432;-77
2021/03/31 02:03:31;;;;;;;15.47;13.97;;;7.40;90.60;;;;;;6136938;23;20715;-77
2021/03/31 02:06:00;;;;;;;17.53;15.73;;;7.40;90.70;;;;;;6125602;23;20746;-78
2021/03/31 02:08:30;;;;;;;18.13;16.30;;;7.30;90.70;;;;;;6150382;23;20948;-78
2021/03/31 02:11:11;;;;;;;17.63;15.80;;;7.30;90.70;;;;;;6125859;23;20472;-78
2021/03/31 02:13:39;;;;;;;17.27;15.20;;;7.30;90.70;;;;;;6136776;23;20429;-77
2021/03/31 02:16:08;;;;;;;18.37;16.43;;;7.30;90.70;;;;;;6149900;23;20421;-77
2021/03/31 02:18:38;;;;;;;15.97;14.27;;;7.20;90.80;;;;;;6125211;23;20434;-78
2021/03/31 02:21:09;;;;;;;17.10;15.40;;;7.20;90.80;;;;;;6125353;23;20416;-78
2021/03/31 02:23:38;;;;;;;18.07;16.00;;;7.20;90.90;;;;;;6134407;23;20457;-78
2021/03/31 02:26:09;;;;;;;17.90;15.20;;;7.10;90.90;;;;;;6136550;23;20738;-78
2021/03/31 02:28:37;;;;;;;16.53;14.70;;;7.10;91.00;;;;;;6110552;23;20429;-78
2021/03/31 02:31:05;;;;;;;16.27;14.33;;;7.10;91.00;;;;;;6100637;23;20495;-77
2021/03/31 02:33:36;;;;;;;16.90;15.02;;;7.10;91.00;;;;;;6135708;23;20892;-77
2021/03/31 02:36:06;;;;;;;17.47;15.07;;;7.10;91.40;;;;;;6125113;23;20170;-77
2021/03/31 02:38:35;;;;;;;15.90;14.40;;;7.10;91.20;;;;;;6136744;23;20508;-78
2021/03/31 02:41:04;;;;;;;16.50;14.90;;;7.10;91.30;;;;;;6136935;23;20393;-77
2021/03/31 02:43:34;;;;;;;17.37;15.70;;;7.00;91.30;;;;;;6136796;23;20469;-77
2021/03/31 02:46:05;;;;;;;16.13;14.53;;;7.00;91.30;;;;;;6101334;23;20413;-77
2021/03/31 02:48:35;;;;;;;18.00;16.20;;;6.90;91.40;;;;;;6125346;23;20445;-78
2021/03/31 02:51:05;;;;;;;18.67;15.57;;;6.90;91.40;;;;;;6101009;23;20765;-78
2021/03/31 02:53:35;;;;;;;17.27;15.47;;;6.80;91.40;;;;;;6136317;23;20432;-78
2021/03/31 02:56:05;;;;;;;18.37;15.90;;;6.80;91.50;;;;;;6100870;23;20423;-78
2021/03/31 02:58:32;;;;;;;18.90;17.00;;;6.80;91.50;;;;;;6136638;23;20484;-78
2021/03/31 03:01:02;;;;;;;16.37;14.80;;;6.80;91.60;;;;;;6100709;23;20503;-77
2021/03/31 03:03:33;;;;;;;21.50;19.30;;;6.70;91.50;;;;;;6125232;23;20445;-77
2021/03/31 03:06:01;;;;;;;29.90;25.70;;;6.70;91.60;;;;;;6136579;23;20440;-76
2021/03/31 03:08:31;;;;;;;23.77;20.50;;;6.70;91.60;;;;;;6136477;23;20425;-77
2021/03/31 03:11:01;;;;;;;20.47;17.93;;;6.70;91.70;;;;;;6100831;23;20421;-77
2021/03/31 03:13:30;;;;;;;21.30;17.70;;;6.60;91.80;;;;;;6138363;23;20436;-78
2021/03/31 03:15:59;;;;;;;18.87;16.70;;;6.60;91.80;;;;;;6138535;23;20401;-78
2021/03/31 03:18:26;;;;;;;18.97;16.50;;;6.60;91.90;;;;;;6138200;23;20476;-78
2021/03/31 03:20:54;;;;;;;18.87;17.03;;;6.60;92.00;;;;;;6102593;23;20421;-78
2021/03/31 03:23:22;;;;;;;16.77;14.87;;;6.50;92.30;;;;;;6102653;23;20417;-77
2021/03/31 03:25:54;;;;;;;18.37;16.47;;;6.50;92.00;;;;;;6120421;23;20421;-77
2021/03/31 03:28:25;;;;;;;17.20;15.40;;;6.50;92.10;;;;;;6138364;23;20909;-77
2021/03/31 03:30:54;;;;;;;20.60;17.70;;;6.50;92.10;;;;;;6127189;23;20416;-77
2021/03/31 03:33:23;;;;;;;23.33;20.60;;;6.40;92.10;;;;;;6126892;23;20442;-78
2021/03/31 03:35:50;;;;;;;20.10;18.00;;;6.40;92.10;;;;;;6126919;23;20413;-78
2021/03/31 03:38:21;;;;;;;19.30;17.30;;;6.40;92.20;;;;;;6126808;23;20520;-78
2021/03/31 03:40:49;;;;;;;21.70;19.43;;;6.30;92.20;;;;;;6126918;23;20488;-77
2021/03/31 03:43:16;;;;;;;20.47;18.37;;;6.30;92.30;;;;;;6126939;23;20413;-77
2021/03/31 03:45:47;;;;;;;21.10;17.20;;;6.20;92.40;;;;;;6138317;23;20398;-77
2021/03/31 03:48:14;;;;;;;17.87;16.10;;;6.30;92.50;;;;;;6126939;23;20444;-78
2021/03/31 03:50:42;;;;;;;18.37;16.57;;;6.30;92.50;;;;;;6138615;23;20461;-78
2021/03/31 03:53:09;;;;;;;19.33;17.33;;;6.20;92.50;;;;;;6126746;23;20445;-78
2021/03/31 03:55:37;;;;;;;18.23;16.50;;;6.20;92.50;;;;;;6126821;23;20980;-79
2021/03/31 03:58:07;;;;;;;19.80;16.80;;;6.20;92.60;;;;;;6151435;23;20417;-78
2021/03/31 04:00:35;;;;;;;18.30;16.50;;;6.20;92.70;;;;;;6126862;23;20746;-78
2021/03/31 04:03:06;;;;;;;18.63;16.47;;;6.20;92.80;;;;;;6127623;23;20461;-78
2021/03/31 04:05:35;;;;;;;19.37;17.37;;;6.10;92.80;;;;;;6126862;23;20437;-78
2021/03/31 04:08:05;;;;;;;20.57;18.47;;;6.10;92.80;;;;;;6137925;23;20468;-79
2021/03/31 04:10:34;;;;;;;20.47;18.30;;;6.10;92.90;;;;;;6126859;23;20417;-78
2021/03/31 04:13:03;;;;;;;20.00;18.00;;;6.10;93.00;;;;;;6137095;23;20889;-78
2021/03/31 04:15:31;;;;;;;20.90;16.73;;;6.10;93.40;;;;;;6127075;23;20169;-78
2021/03/31 04:18:01;;;;;;;19.03;17.00;;;6.10;93.30;;;;;;6137681;23;20421;-78
2021/03/31 04:20:31;;;;;;;18.57;16.73;;;6.10;93.40;;;;;;6137635;23;20393;-78
2021/03/31 04:22:59;;;;;;;19.73;15.70;;;6.00;93.40;;;;;;6126115;23;20468;-78
2021/03/31 04:25:26;;;;;;;20.60;18.60;;;6.00;93.40;;;;;;6126478;23;20885;-78
2021/03/31 04:27:58;;;;;;;18.80;16.80;;;6.00;93.40;;;;;;6137816;23;20409;-78
2021/03/31 04:30:26;;;;;;;18.83;17.03;;;6.00;93.50;;;;;;6126845;23;20402;-78
2021/03/31 04:32:56;;;;;;;19.80;17.50;;;5.90;93.70;;;;;;6127133;23;20820;-78
2021/03/31 04:35:23;;;;;;;18.77;16.87;;;5.90;93.50;;;;;;6150863;23;20413;-78
2021/03/31 04:37:52;;;;;;;19.00;17.00;;;5.90;93.60;;;;;;6137917;23;20456;-78
2021/03/31 04:40:22;;;;;;;19.80;17.90;;;5.90;93.90;;;;;;6138054;23;20468;-78
2021/03/31 04:42:49;;;;;;;19.93;18.03;;;5.90;93.60;;;;;;6138164;23;20441;-77
2021/03/31 04:45:17;;;;;;;18.87;16.97;;;5.80;93.60;;;;;;6127374;23;20428;-77
2021/03/31 04:47:45;;;;;;;18.73;16.83;;;5.80;93.70;;;;;;6138091;23;20408;-77
2021/03/31 04:50:15;;;;;;;19.50;17.40;;;5.80;93.80;;;;;;6137806;23;20417;-78
2021/03/31 04:52:44;;;;;;;18.70;16.60;;;5.80;93.80;;;;;;6126711;23;20433;-78
2021/03/31 04:55:13;;;;;;;18.90;17.00;;;5.80;93.90;;;;;;6137766;23;20806;-78
2021/03/31 04:57:40;;;;;;;20.17;18.00;;;5.80;93.90;;;;;;6138208;23;20386;-78
2021/03/31 05:00:08;;;;;;;20.13;18.03;;;5.70;93.80;;;;;;6137525;23;20424;-78
2021/03/31 05:02:35;;;;;;;20.13;17.63;;;5.70;93.80;;;;;;6137680;23;20398;-79
2021/03/31 05:05:03;;;;;;;19.07;17.07;;;5.70;94.10;;;;;;6137573;23;20397;-79
2021/03/31 05:07:31;;;;;;;18.60;16.80;;;5.70;93.90;;;;;;6137932;23;20429;-78
2021/03/31 05:09:58;;;;;;;19.53;17.13;;;5.70;93.90;;;;;;6137573;23;20456;-78
2021/03/31 05:12:26;;;;;;;19.00;17.00;;;5.70;94.00;;;;;;6137878;23;20464;-78
2021/03/31 05:14:53;;;;;;;19.30;17.30;;;5.60;93.90;;;;;;6137679;23;20417;-78
2021/03/31 05:17:21;;;;;;;20.93;18.73;;;5.60;94.00;;;;;;6126560;23;20538;-78
2021/03/31 05:19:48;;;;;;;20.13;18.10;;;5.60;94.00;;;;;;6126309;23;20809;-78
2021/03/31 05:22:17;;;;;;;21.10;18.80;;;5.60;94.10;;;;;;6126485;23;20740;-79
2021/03/31 05:24:44;;;;;;;19.53;17.50;;;5.60;94.20;;;;;;6131351;23;20476;-78
2021/03/31 05:27:11;;;;;;;21.47;19.07;;;5.60;94.20;;;;;;6102514;23;20869;-78
2021/03/31 05:29:40;;;;;;;20.30;18.27;;;5.60;94.20;;;;;;6137596;23;20421;-78
2021/03/31 05:32:08;;;;;;;22.47;20.23;;;5.60;94.30;;;;;;6101345;23;20916;-78
2021/03/31 05:34:35;;;;;;;22.20;19.87;;;5.60;94.40;;;;;;6101500;23;20508;-77
2021/03/31 05:37:03;;;;;;;22.10;19.60;;;5.60;94.40;;;;;;6101492;23;20793;-77
2021/03/31 05:39:35;;;;;;;22.30;19.80;;;5.60;94.50;;;;;;6101359;23;20452;-78
2021/03/31 05:42:04;;;;;;;22.63;20.33;;;5.60;94.60;;;;;;6100979;23;20496;-78
2021/03/31 05:44:32;;;;;;;22.00;19.70;;;5.60;94.70;;;;;;6137307;23;20397;-78
2021/03/31 05:47:00;;;;;;;24.67;21.43;;;5.60;94.70;;;;;;6101602;23;20420;-78
2021/03/31 05:49:29;;;;;;;20.83;18.60;;;5.60;94.80;;;;;;6101598;23;20495;-78
2021/03/31 05:51:58;;;;;;;20.50;18.50;;;5.60;94.80;;;;;;6101848;23;20405;-78
2021/03/31 05:54:26;;;;;;;21.00;18.38;;;5.60;94.90;;;;;;6136770;23;20416;-77
2021/03/31 05:56:55;;;;;;;24.17;20.83;;;5.80;95.60;;;;;;6137677;23;20629;-77
2021/03/31 05:59:24;;;;;;;21.80;19.57;;;5.80;95.50;;;;;;6101980;23;20441;-77
2021/03/31 06:01:52;;;;;;;23.80;21.50;;;5.80;95.50;;;;;;6125443;23;20424;-77
2021/03/31 06:04:21;;;;;;;21.57;19.40;;;5.80;95.70;;;;;;6101429;23;20185;-78
2021/03/31 06:06:51;;;;;;;23.90;21.23;;;5.80;95.70;;;;;;6125926;23;20431;-78
2021/03/31 06:09:21;;;;;;;24.90;21.70;;;5.80;95.80;;;;;;6101366;23;20776;-78
2021/03/31 06:11:52;;;;;;;24.60;21.63;;;5.90;95.90;;;;;;6101458;23;20410;-78
2021/03/31 06:14:32;;;;;;;39.50;33.37;;;5.90;96.30;;;;;;6136908;23;20521;-78
2021/03/31 06:17:06;;;;;;;42.17;34.90;;;6.00;96.10;;;;;;6137533;23;20392;-78
2021/03/31 06:19:37;;;;;;;27.73;24.80;;;6.10;96.20;;;;;;6137546;23;20425;-78
2021/03/31 06:22:14;;;;;;;26.90;24.30;;;6.20;96.30;;;;;;6101642;23;20493;-77
2021/03/31 06:24:46;;;;;;;24.93;22.30;;;6.40;96.40;;;;;;6104858;23;20919;-78
2021/03/31 06:27:27;;;;;;;25.30;22.60;;;6.60;96.50;;;;;;6126421;23;20413;-78
2021/03/31 06:30:04;;;;;;;24.67;22.20;;;6.90;96.70;;;;;;6137232;23;20425;-78
2021/03/31 06:32:37;;;;;;;24.50;21.57;;;7.20;96.70;;;;;;6137755;23;20404;-78
2021/03/31 06:35:16;;;;;;;24.70;20.83;;;7.40;96.80;;;;;;6137157;23;20841;-77
2021/03/31 06:37:45;;;;;;;22.97;20.50;;;7.70;96.90;;;;;;6137172;23;20389;-77
2021/03/31 06:40:29;;;;;;;21.90;19.63;;;8.00;96.90;;;;;;6125885;23;20765;-77
2021/03/31 06:43:13;;;;;;;22.63;20.30;;;8.20;97.00;;;;;;6137143;23;20382;-77
2021/03/31 06:45:50;;;;;;;22.03;18.87;;;8.50;97.00;;;;;;6137182;23;20432;-78
2021/03/31 06:48:21;;;;;;;22.30;19.90;;;8.70;97.00;;;;;;6125514;23;20441;-78
2021/03/31 06:50:50;;;;;;;32.43;25.90;;;9.00;97.10;;;;;;6125841;23;20423;-78
2021/03/31 06:53:26;;;;;;;28.50;25.37;;;9.10;97.00;;;;;;6136841;23;20445;-78
2021/03/31 06:56:02;;;;;;;21.60;18.53;;;9.30;97.00;;;;;;6125949;23;20828;-78
2021/03/31 06:58:32;;;;;;;22.23;19.80;;;9.50;97.00;;;;;;6137026;23;20428;-78
2021/03/31 07:00:59;;;;;;;22.13;19.70;;;9.60;97.20;;;;;;6126348;23;20605;-77
2021/03/31 07:03:30;;;;;;;22.40;19.30;;;9.80;96.90;;;;;;6125867;23;20409;-77
2021/03/31 07:06:13;;;;;;;22.40;20.00;;;9.90;96.80;;;;;;6126106;23;20402;-77
2021/03/31 07:08:41;;;;;;;22.67;18.90;;;10.10;96.30;;;;;;6125723;23;20449;-78
2021/03/31 07:11:08;;;;;;;19.97;18.00;;;10.20;96.30;;;;;;6125342;23;20416;-78
2021/03/31 07:13:39;;;;;;;20.30;18.23;;;10.30;96.30;;;;;;6125440;23;20448;-78
2021/03/31 07:16:06;;;;;;;21.97;18.73;;;10.40;96.20;;;;;;6126659;23;20418;-78
2021/03/31 07:18:35;;;;;;;20.37;17.93;;;10.50;96.20;;;;;;6136845;23;20512;-78
2021/03/31 07:21:09;;;;;;;19.50;17.50;;;10.60;96.10;;;;;;6125467;23;20425;-78
2021/03/31 07:23:42;;;;;;;20.40;18.20;;;10.70;96.00;;;;;;6126000;23;20802;-78
2021/03/31 07:26:10;;;;;;;21.70;18.30;;;10.70;95.90;;;;;;6137101;23;20428;-78
2021/03/31 07:28:41;;;;;;;25.47;20.77;;;10.80;95.80;;;;;;6136793;23;20433;-78
2021/03/31 07:31:14;;;;;;;21.37;19.07;;;10.90;95.70;;;;;;6101244;23;20928;-78
2021/03/31 07:33:45;;;;;;;23.60;18.50;;;10.90;95.60;;;;;;6101075;23;20769;-78
2021/03/31 07:36:18;;;;;;;20.97;18.80;;;11.00;95.60;;;;;;6137689;23;20413;-77
2021/03/31 07:38:48;;;;;;;20.13;17.07;;;11.10;95.50;;;;;;6101108;23;20433;-77
2021/03/31 07:41:17;;;;;;;20.20;18.10;;;11.20;95.50;;;;;;6125523;23;20425;-77
2021/03/31 07:43:48;;;;;;;21.60;18.47;;;11.30;95.40;;;;;;6136827;23;20783;-77
2021/03/31 07:46:23;;;;;;;21.57;18.00;;;11.40;95.40;;;;;;6125183;23;20425;-77
2021/03/31 07:48:52;;;;;;;21.17;18.23;;;11.50;95.30;;;;;;6136783;23;20472;-77
2021/03/31 07:51:24;;;;;;;20.35;18.33;;;11.70;95.30;;;;;;6124901;23;20784;-78
2021/03/31 07:53:52;;;;;;;19.20;16.90;;;11.90;95.50;;;;;;6100679;23;20193;-78
2021/03/31 07:56:24;;;;;;;19.97;17.80;;;12.10;95.30;;;;;;6136317;23;20854;-78
2021/03/31 07:59:15;;;;;;;21.50;18.50;;;12.40;95.20;;;;;;6136797;23;20421;-78
2021/03/31 08:01:46;;;;;;;18.70;16.50;;;12.70;95.10;;;;;;6138301;23;20436;-78
2021/03/31 08:04:34;;;;;;;16.93;15.13;;;12.90;95.10;;;;;;6138301;23;20861;-78
2021/03/31 08:07:20;;;;;;;22.30;17.93;;;13.20;95.10;;;;;;6138543;23;20378;-78
2021/03/31 08:09:48;;;;;;;18.03;15.23;;;13.50;95.00;;;;;;6138896;23;20472;-78
2021/03/31 08:12:29;;;;;;;17.10;14.80;;;13.80;95.00;;;;;;6126858;23;20413;-78
2021/03/31 08:14:57;;;;;;;15.60;13.90;;;14.00;95.20;;;;;;6103030;23;20436;-78
2021/03/31 08:17:35;;;;;;;23.80;16.37;;;14.30;94.80;;;;;;6137611;23;20385;-78
2021/03/31 08:20:06;;;;;;;18.60;14.93;;;14.50;94.70;;;;;;6138317;23;20400;-78
2021/03/31 08:22:38;;;;;;;17.03;15.37;;;14.70;94.50;;;;;;6137881;23;20381;-78
2021/03/31 08:25:21;;;;;;;18.40;14.70;;;15.00;94.40;;;;;;6129818;23;20440;-78
2021/03/31 08:28:04;;;;;;;18.50;15.10;;;15.20;94.20;;;;;;6102346;23;20400;-78
2021/03/31 08:30:35;;;;;;;18.20;14.93;;;15.40;94.10;;;;;;6102204;23;20448;-78
2021/03/31 08:33:07;;;;;;;19.97;15.80;;;15.60;94.00;;;;;;6102174;23;20417;-78
2021/03/31 08:35:36;;;;;;;16.20;14.57;;;15.80;93.90;;;;;;6137860;23;20360;-78
2021/03/31 08:38:19;;;;;;;19.17;14.50;;;16.00;93.70;;;;;;6126892;23;20479;-78
2021/03/31 08:40:47;;;;;;;20.83;13.83;;;16.10;93.60;;;;;;6102730;23;20392;-78
2021/03/31 08:43:14;;;;;;;15.43;13.80;;;16.30;93.50;;;;;;6138560;23;20368;-78
2021/03/31 08:45:42;;;;;;;16.07;14.20;;;16.50;93.40;;;;;;6102600;23;20731;-78
2021/03/31 08:48:12;;;;;;;17.43;14.20;;;16.70;93.30;;;;;;6138736;23;20380;-78
2021/03/31 08:50:40;;;;;;;22.03;13.37;;;16.80;93.10;;;;;;6102963;23;20391;-78
2021/03/31 08:53:13;;;;;;;16.67;14.57;;;17.00;93.10;;;;;;6103125;23;20411;-78
2021/03/31 08:55:42;;;;;;;15.90;14.27;;;17.20;93.00;;;;;;6139245;23;20419;-78
2021/03/31 08:58:12;;;;;;;15.37;13.80;;;17.30;92.80;;;;;;6138550;23;20398;-78
2021/03/31 09:00:44;;;;;;;15.83;14.13;;;17.50;92.70;;;;;;6102875;23;20421;-78
2021/03/31 09:03:13;;;;;;;18.80;14.60;;;17.60;92.60;;;;;;6127799;23;20420;-78
2021/03/31 09:05:54;;;;;;;19.60;14.13;;;17.80;92.50;;;;;;6139785;23;20405;-78
2021/03/31 09:08:24;;;;;;;18.10;14.10;;;17.90;92.30;;;;;;6139883;23;20734;-78
2021/03/31 09:10:57;;;;;;;15.00;13.20;;;18.10;92.30;;;;;;6104472;23;20477;-78
2021/03/31 09:13:31;;;;;;;18.87;14.40;;;18.20;92.00;;;;;;6105445;23;20723;-78
2021/03/31 09:16:00;;;;;;;14.47;12.97;;;18.30;91.80;;;;;;6128883;23;20428;-78
2021/03/31 09:18:29;;;;;;;17.63;14.40;;;18.50;91.70;;;;;;6140134;23;20394;-78
2021/03/31 09:20:57;;;;;;;16.53;14.00;;;18.60;90.30;;;;;;6103767;23;20244;-78
2021/03/31 09:23:26;;;;;;;15.13;13.53;;;18.70;90.40;;;;;;6103834;23;20421;-78
2021/03/31 09:26:02;;;;;;;17.03;15.23;;;18.80;90.40;;;;;;6140102;23;20737;-78
2021/03/31 09:28:32;;;;;;;16.33;14.27;;;18.90;90.30;;;;;;6127494;23;20813;-78
2021/03/31 09:31:07;;;;;;;18.17;14.23;;;19.10;88.00;;;;;;6142119;23;20165;-78
2021/03/31 09:33:42;;;;;;;15.70;13.87;;;19.20;88.60;;;;;;6107151;23;20460;-78
2021/03/31 09:36:18;;;;;;;15.47;13.67;;;19.30;88.90;;;;;;6106165;23;20475;-78
2021/03/31 09:38:55;;;;;;;14.60;13.10;;;19.40;88.80;;;;;;6151043;23;20432;-78
2021/03/31 09:41:27;;;;;;;14.90;13.40;;;19.50;88.50;;;;;;6150144;23;20763;-79
2021/03/31 09:43:56;;;;;;;19.80;14.43;;;19.60;88.40;;;;;;6154879;23;20921;-79
2021/03/31 09:46:27;;;;;;;16.77;13.67;;;19.60;88.10;;;;;;6137855;23;20440;-78
2021/03/31 09:48:59;;;;;;;16.10;13.10;;;19.70;87.80;;;;;;6118580;23;20444;-78
2021/03/31 09:51:32;;;;;;;17.40;13.90;;;19.80;87.30;;;;;;6134166;23;20413;-78
2021/03/31 09:54:00;;;;;;;16.13;13.57;;;19.90;86.60;;;;;;6141626;23;20422;-78
2021/03/31 09:56:29;;;;;;;15.67;13.30;;;19.90;86.60;;;;;;6141778;23;20477;-78
2021/03/31 09:58:58;;;;;;;16.60;12.80;;;20.00;86.50;;;;;;6140902;23;20939;-78
2021/03/31 10:01:29;;;;;;;18.57;14.63;;;20.00;86.40;;;;;;6106790;23;20419;-79
2021/03/31 10:04:00;;;;;;;21.77;14.10;;;20.10;86.00;;;;;;6142643;23;20386;-79
2021/03/31 10:06:27;;;;;;;18.10;14.73;;;20.20;85.00;;;;;;6142783;23;20386;-79
2021/03/31 10:08:56;;;;;;;18.90;13.60;;;20.20;84.40;;;;;;6106519;23;20445;-79
2021/03/31 10:11:30;;;;;;;18.27;13.73;;;20.30;83.80;;;;;;6106577;23;20801;-79
2021/03/31 10:14:00;;;;;;;17.27;13.77;;;20.30;82.90;;;;;;6108014;23;20456;-79
2021/03/31 10:16:36;;;;;;;18.10;14.07;;;20.30;82.50;;;;;;6143847;23;20436;-79
2021/03/31 10:19:06;;;;;;;17.40;14.53;;;20.30;82.10;;;;;;6130049;23;20441;-79
2021/03/31 10:21:35;;;;;;;18.27;13.60;;;20.40;82.00;;;;;;6141885;23;20386;-78
2021/03/31 10:24:05;;;;;;;15.47;13.00;;;20.40;81.50;;;;;;6105883;23;20879;-78
2021/03/31 10:26:49;;;;;;;20.07;13.83;;;20.50;81.20;;;;;;6142023;23;20386;-78
2021/03/31 10:29:47;;;;;;;18.53;14.10;;;20.50;80.80;;;;;;6141839;23;20432;-78
2021/03/31 10:32:38;;;;;;;19.43;14.50;;;20.60;80.60;;;;;;6142391;23;20437;-78
2021/03/31 10:35:08;;;;;;;18.05;15.00;;;20.60;80.00;;;;;;6140868;23;20414;-78
2021/03/31 10:37:38;;;;;;;18.20;14.50;;;20.70;76.20;;;;;;6105498;23;20173;-78
2021/03/31 10:49:09;;;;;;;16.37;12.83;;;21.00;74.00;;;;;;6105497;23;20194;-79
2021/03/31 10:51:45;;;;;;;17.23;13.60;;;21.00;74.80;;;;;;6105526;23;20441;-78
2021/03/31 10:54:15;;;;;;;19.17;14.60;;;21.00;75.40;;;;;;6141338;23;20487;-79
2021/03/31 10:56:51;;;;;;;17.53;14.37;;;21.00;75.40;;;;;;6141853;23;20402;-78
2021/03/31 10:59:19;;;;;;;17.07;14.97;;;21.10;75.10;;;;;;6141950;23;20417;-78
2021/03/31 11:01:47;;;;;;;17.80;13.77;;;21.10;74.90;;;;;;6106036;23;20476;-78
2021/03/31 11:04:18;;;;;;;17.07;13.60;;;21.10;74.70;;;;;;6105926;23;20476;-78
2021/03/31 11:06:45;;;;;;;21.33;16.00;;;21.10;74.60;;;;;;6106237;23;20416;-79
2021/03/31 11:09:12;;;;;;;19.33;15.40;;;21.10;74.40;;;;;;6141342;23;20472;-79
2021/03/31 11:11:41;;;;;;;17.20;13.80;;;21.20;74.30;;;;;;6141369;23;20401;-79
2021/03/31 11:14:12;;;;;;;19.10;14.30;;;21.20;74.10;;;;;;6141350;23;20505;-79
2021/03/31 11:16:46;;;;;;;18.83;14.77;;;21.20;73.90;;;;;;6142317;23;20885;-79
2021/03/31 11:19:26;;;;;;;15.97;14.27;;;21.30;73.70;;;;;;6105687;23;20444;-79
2021/03/31 11:27:36;;;;;;;19.87;15.07;;;21.30;72.60;;;;;;6142104;23;20386;-79
2021/03/31 11:30:08;;;;;;;16.97;13.80;;;21.40;72.50;;;;;;6155073;23;20430;-78
2021/03/31 11:32:37;;;;;;;22.53;15.43;;;21.40;72.30;;;;;;6155879;23;20419;-78
2021/03/31 11:35:06;;;;;;;16.77;13.80;;;21.50;71.80;;;;;;6132493;23;20786;-79
2021/03/31 11:37:34;;;;;;;16.90;13.90;;;21.50;71.40;;;;;;6144869;23;20397;-80
2021/03/31 11:40:02;;;;;;;16.53;13.87;;;21.50;71.10;;;;;;6144925;23;20422;-80
2021/03/31 11:42:29;;;;;;;16.77;13.27;;;21.60;71.00;;;;;;6145813;23;20429;-80
2021/03/31 11:44:57;;;;;;;15.83;14.10;;;21.60;71.00;;;;;;6158438;23;20481;-80
2021/03/31 11:47:24;;;;;;;17.58;15.50;;;21.60;70.90;;;;;;6143646;23;20418;-79
2021/03/31 11:49:55;;;;;;;17.23;15.30;;;21.70;67.00;;;;;;6158538;23;20204;-79
2021/03/31 11:52:24;;;;;;;17.40;13.53;;;21.80;67.80;;;;;;6145286;23;20393;-79
2021/03/31 11:54:51;;;;;;;17.67;14.30;;;21.80;68.10;;;;;;6134127;23;20520;-79
2021/03/31 11:57:19;;;;;;;17.10;14.27;;;21.80;68.80;;;;;;6132614;23;20457;-79
2021/03/31 11:59:47;;;;;;;19.67;13.93;;;21.80;66.30;;;;;;6145666;23;20190;-79
2021/03/31 12:02:14;;;;;;;18.60;14.00;;;21.90;67.00;;;;;;6133395;23;20417;-79
2021/03/31 12:04:41;;;;;;;17.83;14.50;;;21.90;67.50;;;;;;6133659;23;20413;-80
2021/03/31 12:07:12;;;;;;;16.37;14.67;;;21.90;67.60;;;;;;6134042;23;20421;-80
2021/03/31 12:09:41;;;;;;;20.20;14.70;;;21.90;67.50;;;;;;6145334;23;20920;-80
2021/03/31 12:12:11;;;;;;;15.43;13.57;;;21.90;67.50;;;;;;6145253;23;20396;-80
2021/03/31 12:14:38;;;;;;;18.73;13.80;;;21.90;67.50;;;;;;6138749;23;20434;-80
2021/03/31 12:17:06;;;;;;;15.50;13.70;;;21.90;67.40;;;;;;6146305;23;20420;-80
2021/03/31 12:19:35;;;;;;;18.83;14.97;;;21.90;67.40;;;;;;6155162;23;20449;-80
2021/03/31 12:22:04;;;;;;;16.27;13.10;;;22.00;67.50;;;;;;6139619;23;20409;-80
2021/03/31 12:24:32;;;;;;;22.37;16.63;;;22.00;67.30;;;;;;6144985;23;20406;-80
2021/03/31 12:27:04;;;;;;;17.63;13.73;;;22.10;67.40;;;;;;6109025;23;20428;-80
2021/03/31 12:29:32;;;;;;;19.00;14.50;;;22.10;67.30;;;;;;6108788;23;20445;-80
2021/03/31 12:32:00;;;;;;;18.73;13.13;;;22.20;67.10;;;;;;6109019;23;20421;-80
2021/03/31 12:34:28;;;;;;;28.43;25.90;;;22.20;67.00;;;;;;6109657;23;20440;-80
2021/03/31 12:36:56;;;;;;;17.80;14.40;;;22.30;67.00;;;;;;6108976;23;20409;-80
2021/03/31 12:39:26;;;;;;;23.77;18.83;;;22.30;67.70;;;;;;6144971;23;20417;-80
2021/03/31 12:41:57;;;;;;;17.10;13.80;;;22.40;67.00;;;;;;6133841;23;20931;-80
2021/03/31 12:44:28;;;;;;;17.00;15.40;;;22.40;66.50;;;;;;6109528;23;20414;-80
2021/03/31 12:46:57;;;;;;;18.50;16.60;;;22.40;66.10;;;;;;6109276;23;20749;-80
2021/03/31 12:49:26;;;;;;;19.97;17.90;;;22.40;65.90;;;;;;6133337;23;20441;-80
2021/03/31 12:51:59;;;;;;;17.47;12.73;;;22.50;65.90;;;;;;6133643;23;20464;-81
2021/03/31 12:54:29;;;;;;;16.63;13.20;;;22.50;65.10;;;;;;6144258;23;20873;-81
2021/03/31 12:57:00;;;;;;;13.67;12.37;;;22.50;63.00;;;;;;6109034;23;20162;-80
2021/03/31 12:59:29;;;;;;;14.90;12.77;;;22.60;63.40;;;;;;6134049;23;20445;-80
2021/03/31 13:02:17;;;;;;;16.07;13.50;;;22.70;63.70;;;;;;6146064;23;20386;-80
2021/03/31 13:04:45;;;;;;;17.15;14.10;;;22.70;63.70;;;;;;6110346;23;20494;-81
2021/03/31 13:07:14;;;;;;;17.93;14.80;;;22.70;63.10;;;;;;6146320;23;20625;-81